Terminal Aerodrome Forecast
Issued by NWS Jackson, MS

Home | Current Version | Previous Version | Text Only | Print | Product List | Glossary On
Versions: 1 2 3 4 5 6 7 8 9 10 11 12 13 14 15
090
FTUS44 KJAN 280134 AAA
TAFGLH
TAF AMD
KGLH 280134Z 2802/2824 25007KT P6SM BKN010 BKN080
     FM280300 22006KT P6SM SCT030 BKN060
     FM280800 21006KT 5SM BR VCSH SCT010 OVC025
     FM281700 25010KT P6SM VCTS SCT025 BKN035CB
     FM282100 26007KT P6SM FEW030 BKN100=

USA.gov is the U.S. government's official web portal to all federal, state and local government web resources and services.